sensor_id;sensor_type;location;lat;lon;timestamp;P1;durP1;ratioP1;P2;durP2;ratioP2
57832;SDS011;43667;53.036;6.740;2023-02-13T00:00:30;16.90;;;11.80;;
57832;SDS011;43667;53.036;6.740;2023-02-13T00:02:57;13.43;;;9.77;;
57832;SDS011;43667;53.036;6.740;2023-02-13T00:05:23;14.00;;;10.63;;
57832;SDS011;43667;53.036;6.740;2023-02-13T00:07:49;13.73;;;9.73;;
57832;SDS011;43667;53.036;6.740;2023-02-13T00:10:14;17.17;;;12.10;;
57832;SDS011;43667;53.036;6.740;2023-02-13T00:12:40;16.48;;;12.43;;
57832;SDS011;43667;53.036;6.740;2023-02-13T00:15:06;17.02;;;12.40;;
57832;SDS011;43667;53.036;6.740;2023-02-13T00:17:32;15.27;;;10.90;;
57832;SDS011;43667;53.036;6.740;2023-02-13T00:19:57;13.50;;;10.20;;
57832;SDS011;43667;53.036;6.740;2023-02-13T00:22:23;15.30;;;11.55;;
57832;SDS011;43667;53.036;6.740;2023-02-13T00:24:49;16.38;;;11.05;;
57832;SDS011;43667;53.036;6.740;2023-02-13T00:27:15;12.88;;;10.93;;
57832;SDS011;43667;53.036;6.740;2023-02-13T00:29:40;16.85;;;10.80;;
57832;SDS011;43667;53.036;6.740;2023-02-13T00:32:06;18.92;;;14.73;;
57832;SDS011;43667;53.036;6.740;2023-02-13T00:34:32;19.50;;;13.40;;
57832;SDS011;43667;53.036;6.740;2023-02-13T00:36:58;19.75;;;13.63;;
57832;SDS011;43667;53.036;6.740;2023-02-13T00:39:23;23.98;;;14.65;;
57832;SDS011;43667;53.036;6.740;2023-02-13T00:41:49;26.35;;;15.32;;
57832;SDS011;43667;53.036;6.740;2023-02-13T00:44:15;22.48;;;15.73;;
57832;SDS011;43667;53.036;6.740;2023-02-13T00:46:40;23.52;;;15.35;;
57832;SDS011;43667;53.036;6.740;2023-02-13T00:49:06;22.10;;;16.08;;
57832;SDS011;43667;53.036;6.740;2023-02-13T00:51:32;25.10;;;16.20;;
57832;SDS011;43667;53.036;6.740;2023-02-13T00:53:57;23.27;;;16.15;;
57832;SDS011;43667;53.036;6.740;2023-02-13T00:56:23;23.52;;;17.17;;
57832;SDS011;43667;53.036;6.740;2023-02-13T00:58:48;25.55;;;17.33;;
57832;SDS011;43667;53.036;6.740;2023-02-13T01:01:14;21.60;;;15.65;;
57832;SDS011;43667;53.036;6.740;2023-02-13T01:03:40;24.95;;;16.60;;
57832;SDS011;43667;53.036;6.740;2023-02-13T01:06:05;27.20;;;16.92;;
57832;SDS011;43667;53.036;6.740;2023-02-13T01:08:32;23.25;;;16.13;;
57832;SDS011;43667;53.036;6.740;2023-02-13T01:10:57;23.02;;;15.35;;
57832;SDS011;43667;53.036;6.740;2023-02-13T01:13:23;22.33;;;15.13;;
57832;SDS011;43667;53.036;6.740;2023-02-13T01:15:49;21.23;;;14.77;;
57832;SDS011;43667;53.036;6.740;2023-02-13T01:18:15;21.75;;;15.48;;
57832;SDS011;43667;53.036;6.740;2023-02-13T01:20:42;21.48;;;14.90;;
57832;SDS011;43667;53.036;6.740;2023-02-13T01:23:09;26.50;;;17.23;;
57832;SDS011;43667;53.036;6.740;2023-02-13T01:25:38;26.40;;;16.58;;
57832;SDS011;43667;53.036;6.740;2023-02-13T01:28:05;22.20;;;16.73;;
57832;SDS011;43667;53.036;6.740;2023-02-13T01:30:30;23.40;;;15.32;;
57832;SDS011;43667;53.036;6.740;2023-02-13T01:32:56;24.83;;;15.50;;
57832;SDS011;43667;53.036;6.740;2023-02-13T01:35:21;21.80;;;14.40;;
57832;SDS011;43667;53.036;6.740;2023-02-13T01:37:47;24.73;;;15.30;;
57832;SDS011;43667;53.036;6.740;2023-02-13T01:40:13;23.45;;;13.93;;
57832;SDS011;43667;53.036;6.740;2023-02-13T01:42:39;21.50;;;13.68;;
57832;SDS011;43667;53.036;6.740;2023-02-13T01:45:19;22.10;;;14.73;;
57832;SDS011;43667;53.036;6.740;2023-02-13T01:53:27;25.38;;;15.27;;
57832;SDS011;43667;53.036;6.740;2023-02-13T01:56:14;26.15;;;16.10;;
57832;SDS011;43667;53.036;6.740;2023-02-13T01:58:44;24.23;;;14.98;;
57832;SDS011;43667;53.036;6.740;2023-02-13T02:01:13;23.50;;;15.52;;
57832;SDS011;43667;53.036;6.740;2023-02-13T02:03:49;23.55;;;16.02;;
57832;SDS011;43667;53.036;6.740;2023-02-13T02:06:29;26.20;;;16.88;;
57832;SDS011;43667;53.036;6.740;2023-02-13T02:09:02;28.20;;;16.50;;
57832;SDS011;43667;53.036;6.740;2023-02-13T02:14:16;25.98;;;16.55;;
57832;SDS011;43667;53.036;6.740;2023-02-13T02:16:42;23.92;;;15.50;;
57832;SDS011;43667;53.036;6.740;2023-02-13T02:19:20;26.08;;;14.65;;
57832;SDS011;43667;53.036;6.740;2023-02-13T02:24:59;23.10;;;14.52;;
57832;SDS011;43667;53.036;6.740;2023-02-13T02:41:42;26.73;;;16.80;;
57832;SDS011;43667;53.036;6.740;2023-02-13T02:44:31;25.50;;;16.10;;
57832;SDS011;43667;53.036;6.740;2023-02-13T02:47:12;25.55;;;15.93;;
57832;SDS011;43667;53.036;6.740;2023-02-13T02:55:31;26.40;;;15.93;;
57832;SDS011;43667;53.036;6.740;2023-02-13T02:58:20;26.02;;;16.77;;
57832;SDS011;43667;53.036;6.740;2023-02-13T03:01:14;28.70;;;16.50;;
57832;SDS011;43667;53.036;6.740;2023-02-13T03:04:05;28.48;;;17.00;;
57832;SDS011;43667;53.036;6.740;2023-02-13T03:07:04;29.05;;;16.80;;
57832;SDS011;43667;53.036;6.740;2023-02-13T03:09:38;25.20;;;15.00;;
57832;SDS011;43667;53.036;6.740;2023-02-13T03:12:26;28.25;;;16.42;;
57832;SDS011;43667;53.036;6.740;2023-02-13T03:15:16;25.75;;;16.15;;
57832;SDS011;43667;53.036;6.740;2023-02-13T03:17:41;25.17;;;16.65;;
57832;SDS011;43667;53.036;6.740;2023-02-13T03:20:30;28.40;;;17.35;;
57832;SDS011;43667;53.036;6.740;2023-02-13T03:23:57;29.25;;;17.90;;
57832;SDS011;43667;53.036;6.740;2023-02-13T03:26:33;29.92;;;17.30;;
57832;SDS011;43667;53.036;6.740;2023-02-13T03:35:23;26.65;;;17.10;;
57832;SDS011;43667;53.036;6.740;2023-02-13T03:38:09;26.17;;;16.23;;
57832;SDS011;43667;53.036;6.740;2023-02-13T03:40:47;28.13;;;18.58;;
57832;SDS011;43667;53.036;6.740;2023-02-13T03:43:49;28.50;;;18.23;;
57832;SDS011;43667;53.036;6.740;2023-02-13T03:46:20;26.52;;;16.33;;
57832;SDS011;43667;53.036;6.740;2023-02-13T03:48:47;24.90;;;14.80;;
57832;SDS011;43667;53.036;6.740;2023-02-13T03:51:33;25.88;;;17.25;;
57832;SDS011;43667;53.036;6.740;2023-02-13T03:54:05;28.13;;;18.85;;
57832;SDS011;43667;53.036;6.740;2023-02-13T03:56:40;28.45;;;17.98;;
57832;SDS011;43667;53.036;6.740;2023-02-13T03:59:28;24.75;;;17.30;;
57832;SDS011;43667;53.036;6.740;2023-02-13T04:02:06;27.63;;;17.83;;
57832;SDS011;43667;53.036;6.740;2023-02-13T04:04:45;28.77;;;16.33;;
57832;SDS011;43667;53.036;6.740;2023-02-13T04:07:15;32.65;;;17.30;;
57832;SDS011;43667;53.036;6.740;2023-02-13T04:09:54;31.33;;;18.17;;
57832;SDS011;43667;53.036;6.740;2023-02-13T04:12:32;31.77;;;18.83;;
57832;SDS011;43667;53.036;6.740;2023-02-13T04:15:15;28.00;;;17.63;;
57832;SDS011;43667;53.036;6.740;2023-02-13T04:17:47;28.17;;;17.10;;
57832;SDS011;43667;53.036;6.740;2023-02-13T04:20:17;28.20;;;17.23;;
57832;SDS011;43667;53.036;6.740;2023-02-13T04:22:44;27.63;;;17.88;;
57832;SDS011;43667;53.036;6.740;2023-02-13T04:25:11;32.97;;;19.55;;
57832;SDS011;43667;53.036;6.740;2023-02-13T04:27:39;29.38;;;17.73;;
57832;SDS011;43667;53.036;6.740;2023-02-13T04:30:05;27.35;;;17.27;;
57832;SDS011;43667;53.036;6.740;2023-02-13T04:32:31;27.55;;;17.70;;
57832;SDS011;43667;53.036;6.740;2023-02-13T04:34:56;24.85;;;16.40;;
57832;SDS011;43667;53.036;6.740;2023-02-13T04:37:22;27.15;;;17.40;;
57832;SDS011;43667;53.036;6.740;2023-02-13T04:39:48;27.70;;;17.27;;
57832;SDS011;43667;53.036;6.740;2023-02-13T04:42:14;29.58;;;19.15;;
57832;SDS011;43667;53.036;6.740;2023-02-13T04:44:39;26.13;;;16.63;;
57832;SDS011;43667;53.036;6.740;2023-02-13T04:47:05;27.55;;;17.40;;
57832;SDS011;43667;53.036;6.740;2023-02-13T04:49:30;30.98;;;17.63;;
57832;SDS011;43667;53.036;6.740;2023-02-13T04:51:56;29.88;;;17.70;;
57832;SDS011;43667;53.036;6.740;2023-02-13T04:54:21;25.92;;;17.02;;
57832;SDS011;43667;53.036;6.740;2023-02-13T04:56:47;31.05;;;18.33;;
57832;SDS011;43667;53.036;6.740;2023-02-13T04:59:12;31.17;;;18.25;;
57832;SDS011;43667;53.036;6.740;2023-02-13T05:01:38;28.33;;;17.98;;
57832;SDS011;43667;53.036;6.740;2023-02-13T05:04:04;26.70;;;17.67;;
57832;SDS011;43667;53.036;6.740;2023-02-13T05:06:29;24.67;;;17.17;;
57832;SDS011;43667;53.036;6.740;2023-02-13T05:08:55;25.95;;;16.63;;
57832;SDS011;43667;53.036;6.740;2023-02-13T05:11:20;27.25;;;17.88;;
57832;SDS011;43667;53.036;6.740;2023-02-13T05:13:46;29.42;;;18.90;;
57832;SDS011;43667;53.036;6.740;2023-02-13T05:16:12;24.88;;;17.27;;
57832;SDS011;43667;53.036;6.740;2023-02-13T05:18:37;29.10;;;18.38;;
57832;SDS011;43667;53.036;6.740;2023-02-13T05:21:03;27.42;;;17.35;;
57832;SDS011;43667;53.036;6.740;2023-02-13T05:23:47;29.83;;;18.45;;
57832;SDS011;43667;53.036;6.740;2023-02-13T05:26:12;28.75;;;18.13;;
57832;SDS011;43667;53.036;6.740;2023-02-13T05:28:38;27.38;;;16.90;;
57832;SDS011;43667;53.036;6.740;2023-02-13T05:31:22;27.73;;;17.25;;
57832;SDS011;43667;53.036;6.740;2023-02-13T05:33:47;27.27;;;16.83;;
57832;SDS011;43667;53.036;6.740;2023-02-13T05:36:13;28.65;;;18.02;;
57832;SDS011;43667;53.036;6.740;2023-02-13T05:38:39;28.05;;;17.45;;
57832;SDS011;43667;53.036;6.740;2023-02-13T05:41:05;31.30;;;18.35;;
57832;SDS011;43667;53.036;6.740;2023-02-13T05:43:31;29.17;;;18.42;;
57832;SDS011;43667;53.036;6.740;2023-02-13T05:46:00;25.58;;;17.20;;
57832;SDS011;43667;53.036;6.740;2023-02-13T05:48:27;28.30;;;17.67;;
57832;SDS011;43667;53.036;6.740;2023-02-13T05:50:52;27.70;;;17.67;;
57832;SDS011;43667;53.036;6.740;2023-02-13T05:53:18;30.67;;;19.33;;
57832;SDS011;43667;53.036;6.740;2023-02-13T05:55:43;26.73;;;17.20;;
57832;SDS011;43667;53.036;6.740;2023-02-13T05:58:09;25.20;;;16.52;;
57832;SDS011;43667;53.036;6.740;2023-02-13T06:00:35;28.27;;;17.77;;
57832;SDS011;43667;53.036;6.740;2023-02-13T06:03:01;26.70;;;16.98;;
57832;SDS011;43667;53.036;6.740;2023-02-13T06:05:27;24.70;;;16.25;;
57832;SDS011;43667;53.036;6.740;2023-02-13T06:07:52;31.10;;;18.85;;
57832;SDS011;43667;53.036;6.740;2023-02-13T06:10:18;33.33;;;19.73;;
57832;SDS011;43667;53.036;6.740;2023-02-13T06:12:43;28.55;;;18.13;;
57832;SDS011;43667;53.036;6.740;2023-02-13T06:15:09;29.75;;;18.58;;
57832;SDS011;43667;53.036;6.740;2023-02-13T06:17:35;27.15;;;17.63;;
57832;SDS011;43667;53.036;6.740;2023-02-13T06:20:00;33.25;;;19.63;;
57832;SDS011;43667;53.036;6.740;2023-02-13T06:22:26;31.98;;;19.35;;
57832;SDS011;43667;53.036;6.740;2023-02-13T06:24:51;31.52;;;19.40;;
57832;SDS011;43667;53.036;6.740;2023-02-13T06:27:17;33.65;;;18.65;;
57832;SDS011;43667;53.036;6.740;2023-02-13T06:29:42;28.95;;;18.65;;
57832;SDS011;43667;53.036;6.740;2023-02-13T06:32:08;32.25;;;20.25;;
57832;SDS011;43667;53.036;6.740;2023-02-13T06:34:33;31.55;;;19.75;;
57832;SDS011;43667;53.036;6.740;2023-02-13T06:36:59;27.55;;;18.25;;
57832;SDS011;43667;53.036;6.740;2023-02-13T06:39:24;28.70;;;17.95;;
57832;SDS011;43667;53.036;6.740;2023-02-13T06:41:50;31.58;;;19.55;;
57832;SDS011;43667;53.036;6.740;2023-02-13T06:44:15;28.95;;;19.45;;
57832;SDS011;43667;53.036;6.740;2023-02-13T06:46:41;37.28;;;19.95;;
57832;SDS011;43667;53.036;6.740;2023-02-13T06:49:08;30.65;;;18.63;;
57832;SDS011;43667;53.036;6.740;2023-02-13T06:51:33;30.30;;;18.70;;
57832;SDS011;43667;53.036;6.740;2023-02-13T06:53:59;29.42;;;18.08;;
57832;SDS011;43667;53.036;6.740;2023-02-13T06:56:25;32.85;;;20.40;;
57832;SDS011;43667;53.036;6.740;2023-02-13T06:58:50;34.05;;;20.75;;
57832;SDS011;43667;53.036;6.740;2023-02-13T07:01:16;33.50;;;19.35;;
57832;SDS011;43667;53.036;6.740;2023-02-13T07:03:41;36.58;;;21.17;;
57832;SDS011;43667;53.036;6.740;2023-02-13T07:06:07;33.83;;;20.45;;
57832;SDS011;43667;53.036;6.740;2023-02-13T07:08:33;32.03;;;20.05;;
57832;SDS011;43667;53.036;6.740;2023-02-13T07:10:58;33.65;;;19.77;;
57832;SDS011;43667;53.036;6.740;2023-02-13T07:13:24;30.77;;;19.17;;
57832;SDS011;43667;53.036;6.740;2023-02-13T07:15:50;32.00;;;20.42;;
57832;SDS011;43667;53.036;6.740;2023-02-13T07:18:15;36.78;;;21.65;;
57832;SDS011;43667;53.036;6.740;2023-02-13T07:20:41;33.75;;;20.20;;
57832;SDS011;43667;53.036;6.740;2023-02-13T07:23:06;31.42;;;20.05;;
57832;SDS011;43667;53.036;6.740;2023-02-13T07:25:32;28.77;;;19.98;;
57832;SDS011;43667;53.036;6.740;2023-02-13T07:28:04;31.92;;;21.20;;
57832;SDS011;43667;53.036;6.740;2023-02-13T07:30:30;33.00;;;20.87;;
57832;SDS011;43667;53.036;6.740;2023-02-13T07:33:01;36.88;;;21.05;;
57832;SDS011;43667;53.036;6.740;2023-02-13T07:35:27;34.05;;;20.50;;
57832;SDS011;43667;53.036;6.740;2023-02-13T07:37:53;30.85;;;19.27;;
57832;SDS011;43667;53.036;6.740;2023-02-13T07:40:19;30.33;;;18.40;;
57832;SDS011;43667;53.036;6.740;2023-02-13T07:42:45;34.35;;;20.88;;
57832;SDS011;43667;53.036;6.740;2023-02-13T07:45:11;33.78;;;21.33;;
57832;SDS011;43667;53.036;6.740;2023-02-13T07:47:39;34.78;;;19.88;;
57832;SDS011;43667;53.036;6.740;2023-02-13T07:50:05;36.03;;;21.02;;
57832;SDS011;43667;53.036;6.740;2023-02-13T07:52:31;33.05;;;21.00;;
57832;SDS011;43667;53.036;6.740;2023-02-13T07:54:57;32.63;;;20.48;;
57832;SDS011;43667;53.036;6.740;2023-02-13T07:57:22;35.00;;;22.40;;
57832;SDS011;43667;53.036;6.740;2023-02-13T07:59:48;33.00;;;21.90;;
57832;SDS011;43667;53.036;6.740;2023-02-13T08:02:14;32.88;;;21.23;;
57832;SDS011;43667;53.036;6.740;2023-02-13T08:04:40;34.35;;;20.95;;
57832;SDS011;43667;53.036;6.740;2023-02-13T08:07:10;32.35;;;20.08;;
57832;SDS011;43667;53.036;6.740;2023-02-13T08:09:36;34.03;;;22.05;;
57832;SDS011;43667;53.036;6.740;2023-02-13T08:12:19;36.92;;;23.20;;
57832;SDS011;43667;53.036;6.740;2023-02-13T08:14:45;34.47;;;21.35;;
57832;SDS011;43667;53.036;6.740;2023-02-13T08:17:11;34.05;;;21.35;;
57832;SDS011;43667;53.036;6.740;2023-02-13T08:19:37;40.17;;;22.90;;
57832;SDS011;43667;53.036;6.740;2023-02-13T08:22:02;32.47;;;21.20;;
57832;SDS011;43667;53.036;6.740;2023-02-13T08:24:28;38.60;;;21.70;;
57832;SDS011;43667;53.036;6.740;2023-02-13T08:26:54;33.80;;;21.67;;
57832;SDS011;43667;53.036;6.740;2023-02-13T08:29:20;34.67;;;22.38;;
57832;SDS011;43667;53.036;6.740;2023-02-13T08:31:46;33.38;;;22.05;;
57832;SDS011;43667;53.036;6.740;2023-02-13T08:34:12;43.95;;;24.77;;
57832;SDS011;43667;53.036;6.740;2023-02-13T08:36:37;41.42;;;23.50;;
57832;SDS011;43667;53.036;6.740;2023-02-13T08:39:03;37.00;;;23.55;;
57832;SDS011;43667;53.036;6.740;2023-02-13T08:41:28;40.47;;;23.73;;
57832;SDS011;43667;53.036;6.740;2023-02-13T08:43:54;39.30;;;24.55;;
57832;SDS011;43667;53.036;6.740;2023-02-13T08:46:20;39.78;;;24.55;;
57832;SDS011;43667;53.036;6.740;2023-02-13T08:48:45;45.47;;;26.05;;
57832;SDS011;43667;53.036;6.740;2023-02-13T08:51:11;44.25;;;25.73;;
57832;SDS011;43667;53.036;6.740;2023-02-13T08:53:37;44.85;;;26.40;;
57832;SDS011;43667;53.036;6.740;2023-02-13T08:56:03;41.90;;;25.45;;
57832;SDS011;43667;53.036;6.740;2023-02-13T08:58:30;45.53;;;26.73;;
57832;SDS011;43667;53.036;6.740;2023-02-13T09:00:55;45.53;;;26.10;;
57832;SDS011;43667;53.036;6.740;2023-02-13T09:03:21;46.17;;;27.33;;
57832;SDS011;43667;53.036;6.740;2023-02-13T09:05:46;42.08;;;26.85;;
57832;SDS011;43667;53.036;6.740;2023-02-13T09:08:12;46.63;;;29.10;;
57832;SDS011;43667;53.036;6.740;2023-02-13T09:10:38;51.88;;;28.83;;
57832;SDS011;43667;53.036;6.740;2023-02-13T09:13:05;49.15;;;28.52;;
57832;SDS011;43667;53.036;6.740;2023-02-13T09:15:31;43.15;;;26.60;;
57832;SDS011;43667;53.036;6.740;2023-02-13T09:17:57;46.53;;;26.48;;
57832;SDS011;43667;53.036;6.740;2023-02-13T09:20:23;42.30;;;25.38;;
57832;SDS011;43667;53.036;6.740;2023-02-13T09:22:48;44.20;;;26.13;;
57832;SDS011;43667;53.036;6.740;2023-02-13T09:25:14;45.75;;;26.63;;
57832;SDS011;43667;53.036;6.740;2023-02-13T09:27:40;38.75;;;23.88;;
57832;SDS011;43667;53.036;6.740;2023-02-13T09:30:06;39.33;;;25.60;;
57832;SDS011;43667;53.036;6.740;2023-02-13T09:32:34;34.08;;;23.77;;
57832;SDS011;43667;53.036;6.740;2023-02-13T09:35:01;33.03;;;23.33;;
57832;SDS011;43667;53.036;6.740;2023-02-13T09:37:28;34.28;;;22.95;;
57832;SDS011;43667;53.036;6.740;2023-02-13T09:39:53;33.22;;;22.55;;
57832;SDS011;43667;53.036;6.740;2023-02-13T09:42:20;35.17;;;22.77;;
57832;SDS011;43667;53.036;6.740;2023-02-13T09:44:50;34.58;;;23.30;;
57832;SDS011;43667;53.036;6.740;2023-02-13T09:47:28;29.52;;;21.25;;
57832;SDS011;43667;53.036;6.740;2023-02-13T09:50:33;33.60;;;21.35;;
57832;SDS011;43667;53.036;6.740;2023-02-13T09:52:54;32.42;;;21.77;;
57832;SDS011;43667;53.036;6.740;2023-02-13T09:55:27;29.55;;;20.98;;
57832;SDS011;43667;53.036;6.740;2023-02-13T09:58:18;30.27;;;21.67;;
57832;SDS011;43667;53.036;6.740;2023-02-13T10:00:53;31.55;;;22.10;;
57832;SDS011;43667;53.036;6.740;2023-02-13T10:03:24;32.63;;;23.58;;
57832;SDS011;43667;53.036;6.740;2023-02-13T10:06:11;31.45;;;22.27;;
57832;SDS011;43667;53.036;6.740;2023-02-13T10:14:31;31.02;;;21.15;;
57832;SDS011;43667;53.036;6.740;2023-02-13T10:17:25;29.87;;;20.83;;
57832;SDS011;43667;53.036;6.740;2023-02-13T10:20:02;28.60;;;21.15;;
57832;SDS011;43667;53.036;6.740;2023-02-13T10:22:42;28.17;;;21.00;;
57832;SDS011;43667;53.036;6.740;2023-02-13T10:25:16;25.83;;;19.15;;
57832;SDS011;43667;53.036;6.740;2023-02-13T10:27:51;28.63;;;20.38;;
57832;SDS011;43667;53.036;6.740;2023-02-13T10:30:31;27.70;;;20.07;;
57832;SDS011;43667;53.036;6.740;2023-02-13T10:33:10;29.25;;;21.20;;
57832;SDS011;43667;53.036;6.740;2023-02-13T10:35:48;28.70;;;19.33;;
57832;SDS011;43667;53.036;6.740;2023-02-13T10:38:27;31.95;;;20.42;;
57832;SDS011;43667;53.036;6.740;2023-02-13T10:41:10;30.95;;;20.42;;
57832;SDS011;43667;53.036;6.740;2023-02-13T10:44:05;28.52;;;20.60;;
57832;SDS011;43667;53.036;6.740;2023-02-13T11:01:00;27.95;;;20.88;;
57832;SDS011;43667;53.036;6.740;2023-02-13T11:03:33;27.80;;;20.58;;
57832;SDS011;43667;53.036;6.740;2023-02-13T11:05:59;28.23;;;20.15;;
57832;SDS011;43667;53.036;6.740;2023-02-13T11:08:33;29.10;;;20.48;;
57832;SDS011;43667;53.036;6.740;2023-02-13T11:11:03;29.95;;;21.40;;
57832;SDS011;43667;53.036;6.740;2023-02-13T11:13:29;27.73;;;20.02;;
57832;SDS011;43667;53.036;6.740;2023-02-13T11:15:56;28.83;;;21.42;;
57832;SDS011;43667;53.036;6.740;2023-02-13T11:18:25;26.63;;;20.10;;
57832;SDS011;43667;53.036;6.740;2023-02-13T11:21:00;28.52;;;20.33;;
57832;SDS011;43667;53.036;6.740;2023-02-13T11:23:41;28.98;;;20.65;;
57832;SDS011;43667;53.036;6.740;2023-02-13T11:26:21;28.27;;;21.40;;
57832;SDS011;43667;53.036;6.740;2023-02-13T11:28:53;29.02;;;20.58;;
57832;SDS011;43667;53.036;6.740;2023-02-13T11:31:26;31.35;;;20.98;;
57832;SDS011;43667;53.036;6.740;2023-02-13T11:33:54;27.25;;;21.63;;
57832;SDS011;43667;53.036;6.740;2023-02-13T11:36:32;28.30;;;21.27;;
57832;SDS011;43667;53.036;6.740;2023-02-13T11:39:03;26.15;;;21.48;;
57832;SDS011;43667;53.036;6.740;2023-02-13T11:41:36;27.60;;;21.00;;
57832;SDS011;43667;53.036;6.740;2023-02-13T11:44:05;27.33;;;20.58;;
57832;SDS011;43667;53.036;6.740;2023-02-13T11:46:53;28.88;;;21.05;;
57832;SDS011;43667;53.036;6.740;2023-02-13T11:49:23;28.52;;;21.77;;
57832;SDS011;43667;53.036;6.740;2023-02-13T11:51:52;28.00;;;21.42;;
57832;SDS011;43667;53.036;6.740;2023-02-13T11:54:23;27.60;;;21.85;;
57832;SDS011;43667;53.036;6.740;2023-02-13T11:56:55;31.33;;;21.25;;
57832;SDS011;43667;53.036;6.740;2023-02-13T11:59:23;26.00;;;20.45;;
57832;SDS011;43667;53.036;6.740;2023-02-13T12:04:47;30.15;;;21.63;;
57832;SDS011;43667;53.036;6.740;2023-02-13T12:07:18;28.83;;;20.38;;
57832;SDS011;43667;53.036;6.740;2023-02-13T12:09:52;28.55;;;21.92;;
57832;SDS011;43667;53.036;6.740;2023-02-13T12:12:36;26.15;;;20.35;;
57832;SDS011;43667;53.036;6.740;2023-02-13T12:15:26;30.95;;;19.88;;
57832;SDS011;43667;53.036;6.740;2023-02-13T12:18:01;29.35;;;20.58;;
57832;SDS011;43667;53.036;6.740;2023-02-13T12:20:47;28.50;;;21.35;;
57832;SDS011;43667;53.036;6.740;2023-02-13T12:26:16;26.63;;;20.77;;
57832;SDS011;43667;53.036;6.740;2023-02-13T12:29:02;26.85;;;21.17;;
57832;SDS011;43667;53.036;6.740;2023-02-13T12:31:37;30.17;;;21.85;;
57832;SDS011;43667;53.036;6.740;2023-02-13T12:34:24;24.67;;;19.83;;
57832;SDS011;43667;53.036;6.740;2023-02-13T12:39:33;25.75;;;20.45;;
57832;SDS011;43667;53.036;6.740;2023-02-13T12:45:13;27.10;;;19.38;;
57832;SDS011;43667;53.036;6.740;2023-02-13T12:50:37;30.02;;;21.48;;
57832;SDS011;43667;53.036;6.740;2023-02-13T12:53:23;23.73;;;19.08;;
57832;SDS011;43667;53.036;6.740;2023-02-13T12:56:06;27.38;;;20.40;;
57832;SDS011;43667;53.036;6.740;2023-02-13T13:07:28;27.55;;;21.20;;
57832;SDS011;43667;53.036;6.740;2023-02-13T13:13:13;26.58;;;20.67;;
57832;SDS011;43667;53.036;6.740;2023-02-13T13:16:07;26.35;;;20.10;;
57832;SDS011;43667;53.036;6.740;2023-02-13T13:18:56;30.48;;;21.13;;
57832;SDS011;43667;53.036;6.740;2023-02-13T13:21:46;30.35;;;21.58;;
57832;SDS011;43667;53.036;6.740;2023-02-13T13:27:16;28.23;;;21.52;;
57832;SDS011;43667;53.036;6.740;2023-02-13T13:29:58;29.45;;;21.45;;
57832;SDS011;43667;53.036;6.740;2023-02-13T13:32:30;29.63;;;20.60;;
57832;SDS011;43667;53.036;6.740;2023-02-13T13:34:56;27.85;;;21.00;;
57832;SDS011;43667;53.036;6.740;2023-02-13T13:43:01;27.75;;;20.95;;
57832;SDS011;43667;53.036;6.740;2023-02-13T13:45:48;27.17;;;20.65;;
57832;SDS011;43667;53.036;6.740;2023-02-13T13:51:03;25.75;;;20.08;;
57832;SDS011;43667;53.036;6.740;2023-02-13T13:53:31;25.67;;;20.30;;
57832;SDS011;43667;53.036;6.740;2023-02-13T13:55:58;28.02;;;20.42;;
57832;SDS011;43667;53.036;6.740;2023-02-13T13:58:34;25.88;;;20.30;;
57832;SDS011;43667;53.036;6.740;2023-02-13T14:06:23;29.30;;;20.02;;
57832;SDS011;43667;53.036;6.740;2023-02-13T14:08:52;24.73;;;19.77;;
57832;SDS011;43667;53.036;6.740;2023-02-13T14:13:55;26.60;;;21.52;;
57832;SDS011;43667;53.036;6.740;2023-02-13T14:19:28;23.55;;;19.30;;
57832;SDS011;43667;53.036;6.740;2023-02-13T14:24:55;27.45;;;20.67;;
57832;SDS011;43667;53.036;6.740;2023-02-13T14:27:24;27.20;;;21.20;;
57832;SDS011;43667;53.036;6.740;2023-02-13T14:30:05;25.85;;;20.75;;
57832;SDS011;43667;53.036;6.740;2023-02-13T14:32:52;24.83;;;20.65;;
57832;SDS011;43667;53.036;6.740;2023-02-13T14:37:58;28.58;;;21.40;;
57832;SDS011;43667;53.036;6.740;2023-02-13T14:42:57;29.75;;;21.77;;
57832;SDS011;43667;53.036;6.740;2023-02-13T14:45:43;28.77;;;21.52;;
57832;SDS011;43667;53.036;6.740;2023-02-13T14:48:13;26.20;;;21.17;;
57832;SDS011;43667;53.036;6.740;2023-02-13T14:53:15;27.05;;;21.58;;
57832;SDS011;43667;53.036;6.740;2023-02-13T14:55:50;26.70;;;22.90;;
57832;SDS011;43667;53.036;6.740;2023-02-13T15:00:58;25.52;;;21.75;;
57832;SDS011;43667;53.036;6.740;2023-02-13T15:06:02;24.30;;;21.70;;
57832;SDS011;43667;53.036;6.740;2023-02-13T15:08:35;24.25;;;21.63;;
57832;SDS011;43667;53.036;6.740;2023-02-13T15:11:06;25.10;;;21.33;;
57832;SDS011;43667;53.036;6.740;2023-02-13T15:13:52;23.48;;;20.13;;
57832;SDS011;43667;53.036;6.740;2023-02-13T15:16:18;23.80;;;21.23;;
57832;SDS011;43667;53.036;6.740;2023-02-13T15:18:44;23.98;;;20.95;;
57832;SDS011;43667;53.036;6.740;2023-02-13T15:21:14;24.27;;;20.60;;
57832;SDS011;43667;53.036;6.740;2023-02-13T15:23:42;23.23;;;20.40;;
57832;SDS011;43667;53.036;6.740;2023-02-13T15:26:16;24.15;;;21.10;;
57832;SDS011;43667;53.036;6.740;2023-02-13T15:28:57;24.10;;;21.33;;
57832;SDS011;43667;53.036;6.740;2023-02-13T15:31:25;25.52;;;21.70;;
57832;SDS011;43667;53.036;6.740;2023-02-13T15:33:57;23.00;;;20.58;;
57832;SDS011;43667;53.036;6.740;2023-02-13T15:36:24;24.55;;;21.85;;
57832;SDS011;43667;53.036;6.740;2023-02-13T15:39:01;24.75;;;22.13;;
57832;SDS011;43667;53.036;6.740;2023-02-13T15:41:32;24.83;;;21.42;;
57832;SDS011;43667;53.036;6.740;2023-02-13T15:44:04;27.52;;;21.88;;
57832;SDS011;43667;53.036;6.740;2023-02-13T15:46:31;24.90;;;22.15;;
57832;SDS011;43667;53.036;6.740;2023-02-13T15:49:05;25.40;;;22.10;;
57832;SDS011;43667;53.036;6.740;2023-02-13T15:51:34;25.70;;;22.90;;
57832;SDS011;43667;53.036;6.740;2023-02-13T15:54:23;27.67;;;22.00;;
57832;SDS011;43667;53.036;6.740;2023-02-13T15:56:52;26.65;;;21.50;;
57832;SDS011;43667;53.036;6.740;2023-02-13T15:59:20;25.60;;;21.38;;
57832;SDS011;43667;53.036;6.740;2023-02-13T16:01:47;24.27;;;21.25;;
57832;SDS011;43667;53.036;6.740;2023-02-13T16:04:13;29.10;;;23.40;;
57832;SDS011;43667;53.036;6.740;2023-02-13T16:06:42;25.73;;;22.67;;
57832;SDS011;43667;53.036;6.740;2023-02-13T16:09:30;28.52;;;22.42;;
57832;SDS011;43667;53.036;6.740;2023-02-13T16:12:02;25.77;;;22.25;;
57832;SDS011;43667;53.036;6.740;2023-02-13T16:14:43;27.20;;;22.38;;
57832;SDS011;43667;53.036;6.740;2023-02-13T16:19:57;25.58;;;22.75;;
57832;SDS011;43667;53.036;6.740;2023-02-13T16:22:36;29.75;;;24.65;;
57832;SDS011;43667;53.036;6.740;2023-02-13T16:25:12;30.58;;;23.67;;
57832;SDS011;43667;53.036;6.740;2023-02-13T16:27:42;28.77;;;23.33;;
57832;SDS011;43667;53.036;6.740;2023-02-13T16:30:33;30.73;;;24.55;;
57832;SDS011;43667;53.036;6.740;2023-02-13T16:35:46;29.42;;;23.77;;
57832;SDS011;43667;53.036;6.740;2023-02-13T16:38:28;31.98;;;22.38;;
57832;SDS011;43667;53.036;6.740;2023-02-13T16:40:57;28.02;;;23.23;;
57832;SDS011;43667;53.036;6.740;2023-02-13T16:43:38;34.13;;;24.55;;
57832;SDS011;43667;53.036;6.740;2023-02-13T16:56:46;32.28;;;23.52;;
57832;SDS011;43667;53.036;6.740;2023-02-13T17:02:14;30.48;;;22.83;;
57832;SDS011;43667;53.036;6.740;2023-02-13T17:04:52;31.45;;;24.40;;